Archival Weather

Heathrow

London, United Kingdom (EGLL)

Report from: Monday, July 18, 2022 8:20 PM BST
Current time: Wednesday, December 6, 2023 8:45 AM GMT

Current weather – Weather history – Daily summaries
Weather forecast

Temperature32.0°C (89.6°F)
Heat index30.1°C (86.2°F)
Dew point8.0°C (46.4°F)
Winds 7 kts (3.6 m/s, 8.1 mph) Vrb
Winds variableWinds variable from Southeast (130°) to West-Southwest (240°)
Visibility6.2 mi. (10 km)
Clouds Sky clear
Altimeter30.00 in.Hg (1016 mB)
Relative humidity23 %
Density altitude2,005 ft. (611 m)
Remarks Fully automated report
Corrected report
No clouds detected
No significant changes expected in the next two hours
Flight conditions Visual Meteorological Conditions
Raw dataCOR EGLL 181920Z AUTO 16007KT 130V240 9999 NCD 32/08 Q1016 NOSIG
An error has occurred. This application may no longer respond until reloaded. Reload 🗙